createdAt,value
2022-09-17T00:01:34.909Z,70.80
2022-09-17T00:04:04.796Z,71.00
2022-09-17T00:06:35.521Z,71.60
2022-09-17T00:09:07.518Z,72.30
2022-09-17T00:11:40.694Z,72.70
2022-09-17T00:14:14.455Z,73.00
2022-09-17T00:16:47.997Z,73.60
2022-09-17T00:19:25.391Z,73.90
2022-09-17T00:21:52.950Z,74.00
2022-09-17T00:24:21.125Z,74.40
2022-09-17T00:26:49.584Z,74.60
2022-09-17T00:29:17.616Z,75.00
2022-09-17T00:31:45.161Z,75.40
2022-09-17T00:34:12.685Z,75.90
2022-09-17T00:36:40.733Z,76.30
2022-09-17T00:39:11.524Z,76.60
2022-09-17T00:41:39.747Z,76.80
2022-09-17T00:44:57.533Z,77.20
2022-09-17T00:47:44.546Z,77.40
2022-09-17T00:50:35.203Z,77.80
2022-09-17T00:53:17.097Z,78.10
2022-09-17T00:55:59.119Z,78.40
2022-09-17T00:58:27.457Z,78.80
2022-09-17T01:00:54.727Z,79.30
2022-09-17T01:03:23.578Z,79.70
2022-09-17T01:06:23.604Z,80.00
2022-09-17T01:09:05.854Z,80.30
2022-09-17T01:11:58.687Z,80.30
2022-09-17T01:15:14.769Z,80.10
2022-09-17T01:18:12.528Z,80.10
2022-09-17T01:21:28.159Z,80.00
2022-09-17T01:24:04.252Z,79.90
2022-09-17T01:27:12.483Z,80.00
2022-09-17T01:30:17.125Z,80.10
2022-09-17T01:33:30.438Z,80.30
2022-09-17T01:36:21.370Z,80.40
2022-09-17T01:39:54.916Z,80.50
2022-09-17T01:42:38.546Z,80.80
2022-09-17T01:45:39.663Z,80.90
2022-09-17T01:48:33.942Z,81.20
2022-09-17T01:51:22.285Z,81.30
2022-09-17T01:54:00.391Z,81.50
2022-09-17T01:56:48.576Z,81.50
2022-09-17T01:59:21.645Z,81.50
2022-09-17T02:01:59.140Z,81.80
2022-09-17T02:04:36.592Z,81.60
2022-09-17T02:07:12.987Z,81.90
2022-09-17T02:09:55.772Z,82.20
2022-09-17T02:12:36.672Z,82.30
2022-09-17T02:15:13.031Z,82.50
2022-09-17T02:17:56.541Z,82.60
2022-09-17T02:20:42.607Z,82.60
2022-09-17T02:23:21.319Z,82.70
2022-09-17T02:26:01.369Z,82.80
2022-09-17T02:28:43.113Z,82.90
2022-09-17T02:31:11.738Z,83.00
2022-09-17T02:33:43.639Z,83.10
2022-09-17T02:36:11.037Z,83.10
2022-09-17T02:38:41.767Z,83.20
2022-09-17T02:41:25.427Z,83.20
2022-09-17T02:44:29.625Z,83.20
2022-09-17T02:47:30.615Z,83.30
2022-09-17T02:50:33.731Z,83.20
2022-09-17T02:53:44.429Z,83.20
2022-09-17T02:56:31.036Z,83.30
2022-09-17T02:59:12.143Z,83.20
2022-09-17T03:01:47.999Z,83.20
2022-09-17T03:04:20.247Z,83.20
2022-09-17T03:06:48.544Z,83.40
2022-09-17T03:09:17.108Z,83.50
2022-09-17T03:11:44.548Z,83.50
2022-09-17T03:14:11.804Z,84.10
2022-09-17T03:16:39.335Z,83.70
2022-09-17T03:19:06.641Z,83.90
2022-09-17T03:21:33.913Z,84.00
2022-09-17T03:24:01.317Z,84.20
2022-09-17T03:26:28.512Z,84.40
2022-09-17T03:28:55.683Z,84.40
2022-09-17T03:31:23.102Z,84.50
2022-09-17T03:33:50.685Z,84.50
2022-09-17T03:36:17.976Z,84.50
2022-09-17T03:38:45.190Z,84.50
2022-09-17T03:41:12.819Z,84.40
2022-09-17T03:43:40.070Z,84.30
2022-09-17T03:46:08.965Z,84.30
2022-09-17T03:48:37.320Z,84.30
2022-09-17T03:51:05.732Z,84.50
2022-09-17T03:53:33.691Z,84.80
2022-09-17T03:56:04.362Z,84.90
2022-09-17T03:58:32.283Z,84.90
2022-09-17T04:00:59.805Z,84.90
2022-09-17T04:03:28.591Z,84.90
2022-09-17T04:05:56.912Z,84.90
2022-09-17T04:08:24.634Z,84.90
2022-09-17T04:10:52.038Z,85.00
2022-09-17T04:13:19.459Z,85.20
2022-09-17T04:15:48.399Z,85.20
2022-09-17T04:18:16.432Z,85.10
2022-09-17T04:20:43.819Z,85.10
2022-09-17T04:23:12.516Z,84.90
2022-09-17T04:25:39.821Z,84.90
2022-09-17T04:28:07.582Z,84.90
2022-09-17T04:30:35.034Z,85.00
2022-09-17T04:33:02.539Z,84.90
2022-09-17T04:35:30.603Z,84.90
2022-09-17T04:37:58.824Z,85.00
2022-09-17T04:40:27.860Z,84.90
2022-09-17T04:42:59.599Z,84.70
2022-09-17T04:45:27.642Z,84.70
2022-09-17T04:47:55.858Z,84.70
2022-09-17T04:50:23.535Z,84.70
2022-09-17T04:52:50.856Z,84.80
2022-09-17T04:55:18.613Z,84.80
2022-09-17T04:57:53.783Z,84.80
2022-09-17T05:00:23.442Z,84.70
2022-09-17T05:02:54.435Z,84.60
2022-09-17T05:05:22.843Z,84.50
2022-09-17T05:07:50.174Z,84.50
2022-09-17T05:10:19.949Z,84.50
2022-09-17T05:12:57.508Z,84.50
2022-09-17T05:15:27.833Z,84.50
2022-09-17T05:17:55.175Z,84.50
2022-09-17T05:20:22.912Z,84.60
2022-09-17T05:22:52.506Z,84.50
2022-09-17T05:25:25.945Z,84.60
2022-09-17T05:27:54.839Z,84.60
2022-09-17T05:30:22.556Z,84.40
2022-09-17T05:32:58.140Z,84.00
2022-09-17T05:35:25.483Z,83.80
2022-09-17T05:37:57.401Z,83.70
2022-09-17T05:40:25.845Z,83.50
2022-09-17T05:42:53.253Z,83.30
2022-09-17T05:45:20.440Z,83.20
2022-09-17T05:47:47.673Z,83.10
2022-09-17T05:50:14.974Z,83.00
2022-09-17T05:52:43.780Z,83.50
2022-09-17T05:55:10.875Z,82.70
2022-09-17T05:57:38.070Z,82.80
2022-09-17T06:00:06.595Z,82.70
2022-09-17T06:02:33.748Z,82.70
2022-09-17T06:05:02.030Z,82.90
2022-09-17T06:07:29.938Z,82.80
2022-09-17T06:09:57.244Z,83.00
2022-09-17T06:12:24.502Z,83.00
2022-09-17T06:14:51.859Z,83.20
2022-09-17T06:17:22.267Z,83.20
2022-09-17T06:19:49.640Z,83.30
2022-09-17T06:22:20.405Z,83.40
2022-09-17T06:24:47.633Z,83.50
2022-09-17T06:27:15.176Z,83.40
2022-09-17T06:29:43.978Z,83.30
2022-09-17T06:32:13.109Z,83.20
2022-09-17T06:34:40.662Z,83.00
2022-09-17T06:37:08.015Z,82.90
2022-09-17T06:39:35.297Z,82.10
2022-09-17T06:42:04.798Z,82.60
2022-09-17T06:44:32.131Z,82.40
2022-09-17T06:46:59.516Z,82.50
2022-09-17T06:49:27.192Z,82.00
2022-09-17T06:51:54.397Z,81.40
2022-09-17T06:54:21.631Z,80.00
2022-09-17T06:56:48.847Z,80.10
2022-09-17T06:59:16.251Z,80.10
2022-09-17T07:01:43.823Z,79.70
2022-09-17T07:04:11.168Z,79.80
2022-09-17T07:06:38.520Z,79.50
2022-09-17T07:09:11.144Z,79.30
2022-09-17T07:11:41.920Z,79.30
2022-09-17T07:14:09.502Z,79.50
2022-09-17T07:16:36.888Z,79.60
2022-09-17T07:19:05.018Z,80.40
2022-09-17T07:21:32.740Z,79.70
2022-09-17T07:24:00.077Z,79.70
2022-09-17T07:26:27.385Z,79.60
2022-09-17T07:28:56.842Z,79.70
2022-09-17T07:31:24.201Z,79.80
2022-09-17T07:33:51.568Z,80.00
2022-09-17T07:36:18.905Z,79.80
2022-09-17T07:38:48.944Z,79.90
2022-09-17T07:41:22.076Z,79.80
2022-09-17T07:43:53.343Z,79.70
2022-09-17T07:46:21.699Z,79.70
2022-09-17T07:48:50.039Z,79.80
2022-09-17T07:51:23.894Z,79.70
2022-09-17T07:53:58.039Z,79.50
2022-09-17T07:56:27.549Z,79.10
2022-09-17T07:58:55.764Z,78.40
2022-09-17T08:01:23.212Z,78.50
2022-09-17T08:03:53.993Z,78.10
2022-09-17T08:06:30.817Z,77.30
2022-09-17T08:09:02.517Z,76.80
2022-09-17T08:11:54.428Z,76.50
2022-09-17T08:14:24.534Z,76.10
2022-09-17T08:16:54.630Z,74.20
2022-09-17T08:19:22.335Z,73.70
2022-09-17T08:21:49.878Z,73.50
2022-09-17T08:24:17.328Z,73.10
2022-09-17T08:26:44.633Z,72.60
2022-09-17T08:29:12.230Z,71.60
2022-09-17T08:31:39.615Z,71.20
2022-09-17T08:34:11.821Z,70.50
2022-09-17T08:36:39.362Z,70.30
2022-09-17T08:39:06.896Z,69.50
2022-09-17T08:42:13.537Z,68.90
2022-09-17T08:44:46.760Z,68.70
2022-09-17T08:47:25.833Z,68.60
2022-09-17T08:50:00.566Z,68.80
2022-09-17T08:52:39.026Z,68.00
2022-09-17T08:55:41.623Z,67.60
2022-09-17T08:59:06.319Z,67.70
2022-09-17T09:02:28.805Z,65.80
2022-09-17T09:05:02.671Z,64.30
2022-09-17T09:07:42.524Z,66.00
2022-09-17T09:10:38.075Z,65.60
2022-09-17T09:13:06.818Z,65.50
2022-09-17T09:15:42.081Z,65.70
2022-09-17T09:18:27.139Z,65.70
2022-09-17T09:21:30.754Z,65.70
2022-09-17T09:24:26.514Z,65.60
2022-09-17T09:27:16.214Z,65.20
2022-09-17T09:30:15.612Z,65.70
2022-09-17T09:33:15.739Z,65.60
2022-09-17T09:35:45.583Z,64.10
2022-09-17T09:38:34.236Z,64.60
2022-09-17T09:41:12.306Z,64.40
2022-09-17T09:44:06.426Z,64.30
2022-09-17T09:47:35.236Z,64.40
2022-09-17T09:50:19.121Z,63.40
2022-09-17T09:53:10.383Z,63.40
2022-09-17T09:56:30.112Z,63.60
2022-09-17T09:58:57.295Z,62.80
2022-09-17T10:01:30.705Z,63.20
2022-09-17T10:03:59.054Z,63.20
2022-09-17T10:06:31.533Z,62.70
2022-09-17T10:09:01.736Z,62.70
2022-09-17T10:11:35.081Z,61.80
2022-09-17T10:14:25.767Z,61.90
2022-09-17T10:17:29.021Z,61.90
2022-09-17T10:20:10.645Z,60.40
2022-09-17T10:22:46.113Z,60.60
2022-09-17T10:25:34.551Z,60.90
2022-09-17T10:28:28.194Z,60.10
2022-09-17T10:31:10.485Z,59.60
2022-09-17T10:33:58.328Z,59.70
2022-09-17T10:36:58.845Z,58.60
2022-09-17T10:39:37.602Z,59.30
2022-09-17T10:42:16.423Z,58.60
2022-09-17T10:44:58.740Z,58.60
2022-09-17T10:47:32.126Z,58.60
2022-09-17T10:50:21.066Z,58.00
2022-09-17T10:52:55.828Z,58.20
2022-09-17T10:55:37.256Z,57.90
2022-09-17T10:58:10.113Z,56.70
2022-09-17T11:00:59.151Z,56.30
2022-09-17T11:03:42.395Z,55.80
2022-09-17T11:06:41.550Z,54.80
2022-09-17T11:09:42.220Z,54.10
2022-09-17T11:12:21.306Z,54.20
2022-09-17T11:15:15.343Z,53.30
2022-09-17T11:18:16.339Z,53.60
2022-09-17T11:21:15.680Z,53.70
2022-09-17T11:24:11.243Z,54.00
2022-09-17T11:27:20.299Z,53.90
2022-09-17T11:30:19.763Z,54.10
2022-09-17T11:33:32.412Z,53.20
2022-09-17T11:36:23.178Z,53.40
2022-09-17T11:38:53.808Z,53.50
2022-09-17T11:41:35.944Z,53.50
2022-09-17T11:44:21.914Z,53.50
2022-09-17T11:47:05.635Z,53.60
2022-09-17T11:49:48.685Z,53.70
2022-09-17T11:52:40.312Z,53.70
2022-09-17T11:55:45.129Z,53.90
2022-09-17T11:58:50.183Z,53.00
2022-09-17T12:01:45.012Z,52.60
2022-09-17T12:04:49.868Z,53.70
2022-09-17T12:08:20.394Z,53.20
2022-09-17T12:11:11.877Z,53.60
2022-09-17T12:14:06.546Z,53.60
2022-09-17T12:16:39.107Z,53.70
2022-09-17T12:19:36.659Z,53.10
2022-09-17T12:22:21.248Z,52.90
2022-09-17T12:24:52.521Z,53.00
2022-09-17T12:27:57.017Z,53.10
2022-09-17T12:30:32.376Z,53.30
2022-09-17T12:33:34.356Z,53.50
2022-09-17T12:36:15.438Z,53.70
2022-09-17T12:39:09.607Z,53.70
2022-09-17T12:42:13.306Z,53.70
2022-09-17T12:44:43.771Z,53.80
2022-09-17T12:47:41.142Z,54.10
2022-09-17T12:51:02.654Z,54.20
2022-09-17T12:53:43.218Z,54.60
2022-09-17T12:56:37.954Z,54.70
2022-09-17T12:59:13.099Z,54.60
2022-09-17T13:02:26.886Z,54.50
2022-09-17T13:05:23.634Z,54.00
2022-09-17T13:08:32.848Z,54.00
2022-09-17T13:11:41.603Z,54.40
2022-09-17T13:14:36.361Z,53.90
2022-09-17T13:17:24.920Z,53.80
2022-09-17T13:20:19.181Z,53.70
2022-09-17T13:22:51.413Z,53.80
2022-09-17T13:25:21.071Z,53.90
2022-09-17T13:27:51.052Z,54.20
2022-09-17T13:30:20.971Z,54.40
2022-09-17T13:32:52.768Z,55.20
2022-09-17T13:35:23.300Z,56.10
2022-09-17T13:37:58.514Z,56.70
2022-09-17T13:40:33.154Z,57.70
2022-09-17T13:43:34.123Z,58.00
2022-09-17T13:46:01.275Z,58.50
2022-09-17T13:48:35.015Z,58.70
2022-09-17T13:51:32.133Z,59.00
2022-09-17T13:54:07.358Z,59.30
2022-09-17T13:56:43.733Z,59.30
2022-09-17T13:59:26.517Z,59.30
2022-09-17T14:02:18.728Z,59.30
2022-09-17T14:04:48.655Z,59.40
2022-09-17T14:07:21.920Z,59.60
2022-09-17T14:09:53.726Z,59.80
2022-09-17T14:12:43.133Z,60.10
2022-09-17T14:15:41.377Z,60.30
2022-09-17T14:18:27.431Z,60.40
2022-09-17T14:21:36.094Z,60.60
2022-09-17T14:24:20.865Z,60.80
2022-09-17T14:27:15.041Z,61.10
2022-09-17T14:30:09.347Z,61.30
2022-09-17T14:33:18.732Z,61.60
2022-09-17T14:35:49.206Z,61.60
2022-09-17T14:38:39.921Z,61.60
2022-09-17T14:41:23.378Z,61.80
2022-09-17T14:44:02.832Z,61.90
2022-09-17T14:47:01.804Z,62.00
2022-09-17T14:49:38.493Z,62.10
2022-09-17T14:52:48.196Z,62.20
2022-09-17T14:55:31.830Z,62.00
2022-09-17T14:58:05.049Z,62.20
2022-09-17T15:00:38.256Z,62.60
2022-09-17T15:03:06.851Z,62.90
2022-09-17T15:05:42.474Z,63.00
2022-09-17T15:08:22.995Z,62.90
2022-09-17T15:10:59.624Z,62.80
2022-09-17T15:13:29.912Z,62.90
2022-09-17T15:16:27.059Z,63.10
2022-09-17T15:19:00.389Z,63.30
2022-09-17T15:21:41.646Z,63.50
2022-09-17T15:24:26.444Z,63.70
2022-09-17T15:27:10.576Z,63.90
2022-09-17T15:29:43.644Z,64.30
2022-09-17T15:32:16.501Z,64.70
2022-09-17T15:34:43.876Z,65.00
2022-09-17T15:37:27.632Z,65.30
2022-09-17T15:39:57.637Z,65.50
2022-09-17T15:42:30.949Z,65.60
2022-09-17T15:45:21.079Z,65.80
2022-09-17T15:47:59.981Z,66.10
2022-09-17T15:50:50.686Z,66.30
2022-09-17T15:53:31.398Z,66.60
2022-09-17T15:56:07.635Z,66.60
2022-09-17T15:58:47.094Z,67.50
2022-09-17T16:01:14.293Z,67.50
2022-09-17T16:03:41.897Z,67.80
2022-09-17T16:06:18.259Z,68.40
2022-09-17T16:09:01.078Z,68.60
2022-09-17T16:11:33.137Z,68.70
2022-09-17T16:14:01.755Z,68.60
2022-09-17T16:16:37.873Z,68.50
2022-09-17T16:19:08.756Z,68.60
2022-09-17T16:21:36.043Z,68.70
2022-09-17T16:24:05.411Z,68.70
2022-09-17T16:26:35.359Z,68.80
2022-09-17T16:29:17.727Z,68.90
2022-09-17T16:31:56.350Z,69.00
2022-09-17T16:34:23.681Z,69.00
2022-09-17T16:36:51.146Z,68.90
2022-09-17T16:39:18.619Z,68.80
2022-09-17T16:41:45.799Z,68.80
2022-09-17T16:44:14.466Z,68.90
2022-09-17T16:46:41.904Z,68.80
2022-09-17T16:49:09.343Z,68.70
2022-09-17T16:51:36.581Z,68.60
2022-09-17T16:54:04.019Z,69.40
2022-09-17T16:56:31.712Z,68.60
2022-09-17T16:58:59.095Z,68.20
2022-09-17T17:01:34.534Z,68.00
2022-09-17T17:04:02.077Z,67.90
2022-09-17T17:06:30.781Z,67.90
2022-09-17T17:09:01.401Z,67.60
2022-09-17T17:11:28.887Z,67.60
2022-09-17T17:13:59.087Z,67.50
2022-09-17T17:16:29.594Z,67.30
2022-09-17T17:19:06.428Z,67.20
2022-09-17T17:21:33.692Z,67.10
2022-09-17T17:24:01.994Z,67.20
2022-09-17T17:26:29.480Z,67.20
2022-09-17T17:28:56.770Z,67.00
2022-09-17T17:31:24.065Z,66.80
2022-09-17T17:33:52.561Z,66.90
2022-09-17T17:36:23.476Z,66.90
2022-09-17T17:38:50.819Z,67.00
2022-09-17T17:41:18.785Z,67.00
2022-09-17T17:43:52.133Z,67.00
2022-09-17T17:46:20.105Z,66.90
2022-09-17T17:48:47.539Z,66.90
2022-09-17T17:51:24.144Z,67.00
2022-09-17T17:53:51.707Z,67.10
2022-09-17T17:56:20.654Z,67.00
2022-09-17T17:58:54.361Z,67.00
2022-09-17T18:01:27.373Z,67.20
2022-09-17T18:04:02.459Z,67.30
2022-09-17T18:06:31.015Z,67.50
2022-09-17T18:09:03.889Z,67.60
2022-09-17T18:11:31.640Z,67.70
2022-09-17T18:14:01.965Z,67.80
2022-09-17T18:16:30.107Z,68.00
2022-09-17T18:18:58.390Z,68.10
2022-09-17T18:21:27.719Z,68.90
2022-09-17T18:23:55.032Z,68.10
2022-09-17T18:26:28.991Z,68.30
2022-09-17T18:28:56.708Z,68.40
2022-09-17T18:31:33.885Z,68.40
2022-09-17T18:34:12.025Z,68.40
2022-09-17T18:36:40.665Z,68.40
2022-09-17T18:39:52.888Z,68.50
2022-09-17T18:41:58.593Z,68.80
2022-09-17T18:44:25.878Z,68.80
2022-09-17T18:46:53.182Z,69.90
2022-09-17T18:49:20.666Z,70.40
2022-09-17T18:51:47.941Z,71.10
2022-09-17T18:54:15.209Z,71.70
2022-09-17T18:56:42.787Z,71.80
2022-09-17T18:59:11.092Z,72.80
2022-09-17T19:01:39.006Z,72.70
2022-09-17T19:04:10.086Z,73.50
2022-09-17T19:06:37.409Z,73.60
2022-09-17T19:09:06.539Z,73.60
2022-09-17T19:11:36.339Z,74.10
2022-09-17T19:14:04.336Z,74.20
2022-09-17T19:16:31.722Z,74.40
2022-09-17T19:19:21.340Z,74.90
2022-09-17T19:21:58.757Z,75.00
2022-09-17T19:24:26.110Z,75.20
2022-09-17T19:26:56.417Z,75.30
2022-09-17T19:29:23.826Z,75.70
2022-09-17T19:31:51.110Z,75.60
2022-09-17T19:34:18.362Z,75.60
2022-09-17T19:36:45.544Z,75.80
2022-09-17T19:39:12.836Z,76.00
2022-09-17T19:41:40.159Z,76.00
2022-09-17T19:44:09.819Z,76.00
2022-09-17T19:46:37.101Z,76.20
2022-09-17T19:49:11.977Z,76.20
2022-09-17T19:51:39.267Z,76.10
2022-09-17T19:54:10.333Z,75.90
2022-09-17T19:56:38.318Z,76.00
2022-09-17T19:59:05.877Z,76.20
2022-09-17T20:01:35.112Z,76.40
2022-09-17T20:04:02.795Z,76.00
2022-09-17T20:06:34.719Z,76.00
2022-09-17T20:09:08.776Z,75.90
2022-09-17T20:11:41.230Z,75.40
2022-09-17T20:14:11.902Z,75.30
2022-09-17T20:16:40.338Z,75.20
2022-09-17T20:19:08.056Z,75.40
2022-09-17T20:21:35.349Z,75.40
2022-09-17T20:24:02.680Z,75.50
2022-09-17T20:26:30.033Z,75.50
2022-09-17T20:28:57.471Z,75.70
2022-09-17T20:31:28.515Z,75.60
2022-09-17T20:33:59.840Z,75.30
2022-09-17T20:36:36.422Z,75.40
2022-09-17T20:39:14.583Z,75.30
2022-09-17T20:41:47.001Z,75.40
2022-09-17T20:44:14.348Z,75.40
2022-09-17T20:46:41.697Z,75.30
2022-09-17T20:49:09.304Z,75.30
2022-09-17T20:51:36.591Z,75.30
2022-09-17T20:54:04.674Z,75.20
2022-09-17T20:56:34.535Z,75.00
2022-09-17T20:59:18.892Z,75.00
2022-09-17T21:01:49.886Z,74.80
2022-09-17T21:04:20.461Z,74.50
2022-09-17T21:06:52.657Z,75.10
2022-09-17T21:09:20.984Z,74.30
2022-09-17T21:11:49.505Z,74.20
2022-09-17T21:14:18.445Z,74.30
2022-09-17T21:16:49.070Z,74.40
2022-09-17T21:19:16.768Z,74.20
2022-09-17T21:21:44.661Z,74.20
2022-09-17T21:24:12.430Z,74.30
2022-09-17T21:26:39.727Z,74.30
2022-09-17T21:29:07.293Z,74.30
2022-09-17T21:31:37.893Z,74.30
2022-09-17T21:34:11.330Z,74.40
2022-09-17T21:36:41.044Z,74.70
2022-09-17T21:39:15.492Z,74.60
2022-09-17T21:41:48.190Z,74.60
2022-09-17T21:44:17.928Z,74.80
2022-09-17T21:46:45.249Z,74.60
2022-09-17T21:49:13.581Z,74.40
2022-09-17T21:51:43.800Z,74.20
2022-09-17T21:54:15.921Z,74.20
2022-09-17T21:56:47.049Z,74.30
2022-09-17T21:59:16.313Z,74.20
2022-09-17T22:01:47.542Z,74.00
2022-09-17T22:04:18.934Z,73.70
2022-09-17T22:06:48.903Z,73.60
2022-09-17T22:09:22.168Z,73.60
2022-09-17T22:11:50.890Z,73.50
2022-09-17T22:14:22.142Z,73.60
2022-09-17T22:16:52.913Z,73.30
2022-09-17T22:19:22.298Z,73.10
2022-09-17T22:21:53.440Z,73.50
2022-09-17T22:24:23.238Z,72.80
2022-09-17T22:26:57.365Z,72.70
2022-09-17T22:29:27.625Z,72.70
2022-09-17T22:31:55.235Z,72.50
2022-09-17T22:34:23.643Z,72.50
2022-09-17T22:36:51.113Z,72.40
2022-09-17T22:39:21.884Z,72.20
2022-09-17T22:41:50.231Z,71.60
2022-09-17T22:44:20.016Z,71.50
2022-09-17T22:46:51.111Z,71.50
2022-09-17T22:49:19.359Z,70.90
2022-09-17T22:51:47.330Z,71.00
2022-09-17T22:54:18.083Z,71.00
2022-09-17T22:56:47.407Z,70.90
2022-09-17T22:59:15.151Z,70.80
2022-09-17T23:01:42.704Z,70.60
2022-09-17T23:04:10.326Z,70.60
2022-09-17T23:06:40.052Z,70.60
2022-09-17T23:09:08.096Z,70.40
2022-09-17T23:11:39.479Z,70.50
2022-09-17T23:14:11.649Z,70.50
2022-09-17T23:16:43.474Z,70.60
2022-09-17T23:19:11.895Z,70.70
2022-09-17T23:21:39.648Z,70.90
2022-09-17T23:24:08.325Z,71.00
2022-09-17T23:26:35.709Z,70.50
2022-09-17T23:29:05.315Z,70.50
2022-09-17T23:31:37.094Z,70.10
2022-09-17T23:34:06.162Z,70.10
2022-09-17T23:36:36.969Z,69.70
2022-09-17T23:39:07.708Z,69.70
2022-09-17T23:41:40.000Z,69.40
2022-09-17T23:44:14.492Z,69.50
2022-09-17T23:46:42.750Z,69.50
2022-09-17T23:49:11.911Z,69.60
2022-09-17T23:51:39.758Z,69.70
2022-09-17T23:54:07.322Z,69.70
2022-09-17T23:56:35.653Z,69.90
2022-09-17T23:59:03.607Z,69.80
